sensor_id;sensor_type;location;lat;lon;timestamp;pressure;altitude;pressure_sealevel;temperature;humidity
64835;BME280;51293;59.296;18.006;2022-11-20T00:00:37;101307.75;;;-0.91;100.00
64835;BME280;51293;59.296;18.006;2022-11-20T00:03:03;101304.22;;;-0.91;100.00
64835;BME280;51293;59.296;18.006;2022-11-20T00:05:28;101291.66;;;-0.89;100.00
64835;BME280;51293;59.296;18.006;2022-11-20T00:07:53;101289.97;;;-0.90;100.00
64835;BME280;51293;59.296;18.006;2022-11-20T00:10:19;101282.97;;;-0.91;100.00
64835;BME280;51293;59.296;18.006;2022-11-20T00:12:44;101278.63;;;-0.92;100.00
64835;BME280;51293;59.296;18.006;2022-11-20T00:15:10;101283.81;;;-0.91;100.00
64835;BME280;51293;59.296;18.006;2022-11-20T00:17:35;101274.28;;;-0.93;100.00
64835;BME280;51293;59.296;18.006;2022-11-20T00:20:00;101278.50;;;-0.91;100.00
64835;BME280;51293;59.296;18.006;2022-11-20T00:22:26;101279.47;;;-0.92;100.00
64835;BME280;51293;59.296;18.006;2022-11-20T00:24:51;101272.63;;;-0.94;100.00
64835;BME280;51293;59.296;18.006;2022-11-20T00:27:16;101269.97;;;-0.94;100.00
64835;BME280;51293;59.296;18.006;2022-11-20T00:29:42;101274.75;;;-0.98;100.00
64835;BME280;51293;59.296;18.006;2022-11-20T00:32:07;101268.00;;;-0.92;100.00
64835;BME280;51293;59.296;18.006;2022-11-20T00:34:33;101266.91;;;-0.99;100.00
64835;BME280;51293;59.296;18.006;2022-11-20T00:36:58;101268.69;;;-1.00;100.00
64835;BME280;51293;59.296;18.006;2022-11-20T00:39:23;101263.13;;;-1.06;100.00
64835;BME280;51293;59.296;18.006;2022-11-20T00:41:49;101256.97;;;-1.07;100.00
64835;BME280;51293;59.296;18.006;2022-11-20T00:44:15;101256.25;;;-1.09;100.00
64835;BME280;51293;59.296;18.006;2022-11-20T00:46:40;101257.38;;;-1.02;100.00
64835;BME280;51293;59.296;18.006;2022-11-20T00:49:05;101241.97;;;-1.08;100.00
64835;BME280;51293;59.296;18.006;2022-11-20T00:51:31;101248.56;;;-1.02;100.00
64835;BME280;51293;59.296;18.006;2022-11-20T00:53:57;101244.53;;;-1.06;100.00
64835;BME280;51293;59.296;18.006;2022-11-20T00:56:25;101245.78;;;-1.10;100.00
64835;BME280;51293;59.296;18.006;2022-11-20T00:58:50;101245.63;;;-1.09;100.00
64835;BME280;51293;59.296;18.006;2022-11-20T01:01:24;101236.13;;;-1.11;100.00
64835;BME280;51293;59.296;18.006;2022-11-20T01:03:52;101230.97;;;-1.13;100.00
64835;BME280;51293;59.296;18.006;2022-11-20T01:06:22;101243.13;;;-1.10;100.00
64835;BME280;51293;59.296;18.006;2022-11-20T01:08:49;101231.66;;;-1.11;100.00
64835;BME280;51293;59.296;18.006;2022-11-20T01:11:18;101227.31;;;-1.12;100.00
64835;BME280;51293;59.296;18.006;2022-11-20T01:13:45;101235.97;;;-1.10;100.00
64835;BME280;51293;59.296;18.006;2022-11-20T01:16:17;101222.69;;;-1.10;100.00
64835;BME280;51293;59.296;18.006;2022-11-20T01:18:45;101229.56;;;-1.07;100.00
64835;BME280;51293;59.296;18.006;2022-11-20T01:21:17;101232.78;;;-1.14;100.00
64835;BME280;51293;59.296;18.006;2022-11-20T01:23:43;101228.16;;;-1.11;100.00
64835;BME280;51293;59.296;18.006;2022-11-20T01:26:15;101222.53;;;-1.08;100.00
64835;BME280;51293;59.296;18.006;2022-11-20T01:28:41;101221.44;;;-1.06;100.00
64835;BME280;51293;59.296;18.006;2022-11-20T01:33:41;101221.00;;;-1.11;100.00
64835;BME280;51293;59.296;18.006;2022-11-20T01:36:07;101214.56;;;-1.08;100.00
64835;BME280;51293;59.296;18.006;2022-11-20T01:38:33;101208.56;;;-1.10;100.00
64835;BME280;51293;59.296;18.006;2022-11-20T01:40:58;101208.00;;;-1.04;100.00
64835;BME280;51293;59.296;18.006;2022-11-20T01:43:24;101199.19;;;-1.15;100.00
64835;BME280;51293;59.296;18.006;2022-11-20T01:45:56;101193.28;;;-1.08;100.00
64835;BME280;51293;59.296;18.006;2022-11-20T01:48:23;101198.59;;;-1.08;100.00
64835;BME280;51293;59.296;18.006;2022-11-20T01:50:51;101187.28;;;-1.10;100.00
64835;BME280;51293;59.296;18.006;2022-11-20T01:53:21;101185.63;;;-1.11;100.00
64835;BME280;51293;59.296;18.006;2022-11-20T01:55:51;101184.94;;;-1.14;100.00
64835;BME280;51293;59.296;18.006;2022-11-20T01:58:21;101186.75;;;-1.14;100.00
64835;BME280;51293;59.296;18.006;2022-11-20T02:00:47;101179.75;;;-1.15;100.00
64835;BME280;51293;59.296;18.006;2022-11-20T02:03:16;101172.84;;;-1.08;100.00
64835;BME280;51293;59.296;18.006;2022-11-20T02:05:46;101171.19;;;-1.09;100.00
64835;BME280;51293;59.296;18.006;2022-11-20T02:08:15;101164.75;;;-1.06;100.00
64835;BME280;51293;59.296;18.006;2022-11-20T02:10:41;101168.69;;;-1.10;100.00
64835;BME280;51293;59.296;18.006;2022-11-20T02:13:06;101149.22;;;-1.11;100.00
64835;BME280;51293;59.296;18.006;2022-11-20T02:15:51;101154.13;;;-1.06;100.00
64835;BME280;51293;59.296;18.006;2022-11-20T02:18:18;101158.34;;;-1.14;100.00
64835;BME280;51293;59.296;18.006;2022-11-20T02:20:47;101152.16;;;-1.04;100.00
64835;BME280;51293;59.296;18.006;2022-11-20T02:23:41;101143.75;;;-1.09;100.00
64835;BME280;51293;59.296;18.006;2022-11-20T02:26:10;101142.09;;;-1.10;100.00
64835;BME280;51293;59.296;18.006;2022-11-20T02:28:37;101140.13;;;-1.08;100.00
64835;BME280;51293;59.296;18.006;2022-11-20T02:31:03;101141.06;;;-1.00;100.00
64835;BME280;51293;59.296;18.006;2022-11-20T02:33:28;101136.88;;;-1.02;100.00
64835;BME280;51293;59.296;18.006;2022-11-20T02:35:53;101122.91;;;-1.04;100.00
64835;BME280;51293;59.296;18.006;2022-11-20T02:38:19;101126.94;;;-1.00;100.00
64835;BME280;51293;59.296;18.006;2022-11-20T02:40:45;101125.25;;;-1.01;100.00
64835;BME280;51293;59.296;18.006;2022-11-20T02:43:10;101131.16;;;-0.98;100.00
64835;BME280;51293;59.296;18.006;2022-11-20T02:45:36;101120.78;;;-1.01;100.00
64835;BME280;51293;59.296;18.006;2022-11-20T02:48:02;101117.28;;;-1.01;100.00
64835;BME280;51293;59.296;18.006;2022-11-20T02:50:27;101115.22;;;-1.07;100.00
64835;BME280;51293;59.296;18.006;2022-11-20T02:52:52;101115.34;;;-1.09;100.00
64835;BME280;51293;59.296;18.006;2022-11-20T02:55:18;101112.84;;;-1.10;100.00
64835;BME280;51293;59.296;18.006;2022-11-20T02:57:43;101107.25;;;-1.07;100.00
64835;BME280;51293;59.296;18.006;2022-11-20T03:00:09;101108.22;;;-1.08;100.00
64835;BME280;51293;59.296;18.006;2022-11-20T03:02:35;101096.06;;;-1.11;100.00
64835;BME280;51293;59.296;18.006;2022-11-20T03:05:00;101098.88;;;-1.13;100.00
64835;BME280;51293;59.296;18.006;2022-11-20T03:07:25;101093.97;;;-1.07;100.00
64835;BME280;51293;59.296;18.006;2022-11-20T03:09:51;101088.19;;;-1.03;100.00
64835;BME280;51293;59.296;18.006;2022-11-20T03:12:16;101085.13;;;-1.08;100.00
64835;BME280;51293;59.296;18.006;2022-11-20T03:14:42;101091.16;;;-1.06;100.00
64835;BME280;51293;59.296;18.006;2022-11-20T03:17:07;101089.06;;;-1.12;100.00
64835;BME280;51293;59.296;18.006;2022-11-20T03:19:32;101086.78;;;-0.97;100.00
64835;BME280;51293;59.296;18.006;2022-11-20T03:21:59;101087.09;;;-1.10;100.00
64835;BME280;51293;59.296;18.006;2022-11-20T03:24:25;101085.56;;;-1.13;100.00
64835;BME280;51293;59.296;18.006;2022-11-20T03:26:51;101088.91;;;-1.10;100.00
64835;BME280;51293;59.296;18.006;2022-11-20T03:29:16;101084.16;;;-1.07;100.00
64835;BME280;51293;59.296;18.006;2022-11-20T03:31:41;101077.91;;;-1.16;100.00
64835;BME280;51293;59.296;18.006;2022-11-20T03:34:09;101073.81;;;-1.10;100.00
64835;BME280;51293;59.296;18.006;2022-11-20T03:36:37;101071.97;;;-1.09;100.00
64835;BME280;51293;59.296;18.006;2022-11-20T03:39:03;101070.31;;;-1.10;100.00
64835;BME280;51293;59.296;18.006;2022-11-20T03:41:31;101072.59;;;-1.16;100.00
64835;BME280;51293;59.296;18.006;2022-11-20T03:43:58;101067.28;;;-1.16;100.00
64835;BME280;51293;59.296;18.006;2022-11-20T03:46:25;101059.00;;;-1.13;100.00
64835;BME280;51293;59.296;18.006;2022-11-20T03:48:50;101061.66;;;-1.13;100.00
64835;BME280;51293;59.296;18.006;2022-11-20T03:51:27;101064.47;;;-1.14;100.00
64835;BME280;51293;59.296;18.006;2022-11-20T03:53:54;101051.69;;;-1.10;100.00
64835;BME280;51293;59.296;18.006;2022-11-20T03:56:23;101055.03;;;-1.08;100.00
64835;BME280;51293;59.296;18.006;2022-11-20T03:58:49;101048.50;;;-1.14;100.00
64835;BME280;51293;59.296;18.006;2022-11-20T04:01:17;101048.88;;;-1.09;100.00
64835;BME280;51293;59.296;18.006;2022-11-20T04:03:43;101040.81;;;-1.17;100.00
64835;BME280;51293;59.296;18.006;2022-11-20T04:06:14;101042.84;;;-1.01;100.00
64835;BME280;51293;59.296;18.006;2022-11-20T04:08:41;101036.88;;;-1.13;100.00
64835;BME280;51293;59.296;18.006;2022-11-20T04:11:13;101041.94;;;-1.20;100.00
64835;BME280;51293;59.296;18.006;2022-11-20T04:13:39;101045.03;;;-1.15;100.00
64835;BME280;51293;59.296;18.006;2022-11-20T04:16:06;101035.47;;;-1.07;100.00
64835;BME280;51293;59.296;18.006;2022-11-20T04:18:32;101029.59;;;-1.11;100.00
64835;BME280;51293;59.296;18.006;2022-11-20T04:20:58;101025.44;;;-1.14;100.00
64835;BME280;51293;59.296;18.006;2022-11-20T04:23:24;101029.38;;;-1.00;100.00
64835;BME280;51293;59.296;18.006;2022-11-20T04:25:49;101017.00;;;-1.09;100.00
64835;BME280;51293;59.296;18.006;2022-11-20T04:28:15;101026.53;;;-1.16;100.00
64835;BME280;51293;59.296;18.006;2022-11-20T04:30:40;101008.19;;;-1.09;100.00
64835;BME280;51293;59.296;18.006;2022-11-20T04:33:06;101012.81;;;-1.11;100.00
64835;BME280;51293;59.296;18.006;2022-11-20T04:35:34;101006.13;;;-1.16;100.00
64835;BME280;51293;59.296;18.006;2022-11-20T04:37:59;101003.41;;;-1.06;100.00
64835;BME280;51293;59.296;18.006;2022-11-20T04:40:25;100995.44;;;-1.06;100.00
64835;BME280;51293;59.296;18.006;2022-11-20T04:42:50;100992.69;;;-1.14;100.00
64835;BME280;51293;59.296;18.006;2022-11-20T04:45:15;100999.78;;;-1.05;100.00
64835;BME280;51293;59.296;18.006;2022-11-20T04:47:41;100994.06;;;-1.10;100.00
64835;BME280;51293;59.296;18.006;2022-11-20T04:50:06;100989.19;;;-1.15;100.00
64835;BME280;51293;59.296;18.006;2022-11-20T04:52:32;100995.50;;;-1.16;100.00
64835;BME280;51293;59.296;18.006;2022-11-20T04:54:57;100990.19;;;-1.16;100.00
64835;BME280;51293;59.296;18.006;2022-11-20T04:57:23;100979.81;;;-1.19;100.00
64835;BME280;51293;59.296;18.006;2022-11-20T04:59:48;100981.22;;;-1.15;100.00
64835;BME280;51293;59.296;18.006;2022-11-20T05:02:13;100985.91;;;-1.08;100.00
64835;BME280;51293;59.296;18.006;2022-11-20T05:04:39;100983.81;;;-1.05;100.00
64835;BME280;51293;59.296;18.006;2022-11-20T05:07:04;100979.09;;;-1.11;100.00
64835;BME280;51293;59.296;18.006;2022-11-20T05:09:30;100964.97;;;-1.11;100.00
64835;BME280;51293;59.296;18.006;2022-11-20T05:11:55;100962.16;;;-1.10;100.00
64835;BME280;51293;59.296;18.006;2022-11-20T05:14:21;100956.41;;;-1.05;100.00
64835;BME280;51293;59.296;18.006;2022-11-20T05:16:46;100963.78;;;-0.99;100.00
64835;BME280;51293;59.296;18.006;2022-11-20T05:19:11;100955.09;;;-1.01;100.00
64835;BME280;51293;59.296;18.006;2022-11-20T05:21:37;100956.56;;;-1.07;100.00
64835;BME280;51293;59.296;18.006;2022-11-20T05:24:02;100958.50;;;-1.09;100.00
64835;BME280;51293;59.296;18.006;2022-11-20T05:26:28;100960.16;;;-1.08;100.00
64835;BME280;51293;59.296;18.006;2022-11-20T05:28:53;100962.72;;;-1.06;100.00
64835;BME280;51293;59.296;18.006;2022-11-20T05:31:21;100950.41;;;-1.07;100.00
64835;BME280;51293;59.296;18.006;2022-11-20T05:33:47;100944.78;;;-1.04;100.00
64835;BME280;51293;59.296;18.006;2022-11-20T05:36:13;100929.06;;;-0.98;100.00
64835;BME280;51293;59.296;18.006;2022-11-20T05:38:40;100932.00;;;-1.01;100.00
64835;BME280;51293;59.296;18.006;2022-11-20T05:41:14;100923.34;;;-1.03;100.00
64835;BME280;51293;59.296;18.006;2022-11-20T05:43:41;100922.91;;;-0.98;100.00
64835;BME280;51293;59.296;18.006;2022-11-20T05:46:09;100923.34;;;-1.03;100.00
64835;BME280;51293;59.296;18.006;2022-11-20T05:48:36;100917.19;;;-1.03;100.00
64835;BME280;51293;59.296;18.006;2022-11-20T05:51:04;100917.50;;;-1.06;100.00
64835;BME280;51293;59.296;18.006;2022-11-20T05:53:32;100915.94;;;-0.99;100.00
64835;BME280;51293;59.296;18.006;2022-11-20T05:58:23;100926.84;;;-1.02;100.00
64835;BME280;51293;59.296;18.006;2022-11-20T06:00:48;100923.75;;;-0.98;100.00
64835;BME280;51293;59.296;18.006;2022-11-20T06:03:13;100909.66;;;-1.08;100.00
64835;BME280;51293;59.296;18.006;2022-11-20T06:05:39;100924.84;;;-1.00;100.00
64835;BME280;51293;59.296;18.006;2022-11-20T06:08:04;100912.56;;;-1.01;100.00
64835;BME280;51293;59.296;18.006;2022-11-20T06:10:29;100914.78;;;-0.97;100.00
64835;BME280;51293;59.296;18.006;2022-11-20T06:12:57;100912.47;;;-0.92;100.00
64835;BME280;51293;59.296;18.006;2022-11-20T06:15:23;100920.25;;;-0.98;100.00
64835;BME280;51293;59.296;18.006;2022-11-20T06:17:52;100916.50;;;-1.05;100.00
64835;BME280;51293;59.296;18.006;2022-11-20T06:20:18;100912.56;;;-1.01;100.00
64835;BME280;51293;59.296;18.006;2022-11-20T06:22:43;100916.50;;;-1.05;100.00
64835;BME280;51293;59.296;18.006;2022-11-20T06:25:08;100906.31;;;-1.10;100.00
64835;BME280;51293;59.296;18.006;2022-11-20T06:27:34;100916.59;;;-0.97;100.00
64835;BME280;51293;59.296;18.006;2022-11-20T06:29:59;100906.88;;;-1.06;100.00
64835;BME280;51293;59.296;18.006;2022-11-20T06:32:24;100904.34;;;-1.08;100.00
64835;BME280;51293;59.296;18.006;2022-11-20T06:34:50;100907.41;;;-1.03;100.00
64835;BME280;51293;59.296;18.006;2022-11-20T06:37:15;100900.56;;;-1.05;100.00
64835;BME280;51293;59.296;18.006;2022-11-20T06:39:40;100894.34;;;-0.96;100.00
64835;BME280;51293;59.296;18.006;2022-11-20T06:42:06;100883.31;;;-1.01;100.00
64835;BME280;51293;59.296;18.006;2022-11-20T06:44:31;100899.19;;;-1.09;100.00
64835;BME280;51293;59.296;18.006;2022-11-20T06:46:56;100889.09;;;-1.06;100.00
64835;BME280;51293;59.296;18.006;2022-11-20T06:49:22;100890.69;;;-0.95;100.00
64835;BME280;51293;59.296;18.006;2022-11-20T06:51:47;100888.78;;;-1.03;100.00
64835;BME280;51293;59.296;18.006;2022-11-20T06:54:13;100888.25;;;-1.06;100.00
64835;BME280;51293;59.296;18.006;2022-11-20T06:56:38;100885.44;;;-1.05;100.00
64835;BME280;51293;59.296;18.006;2022-11-20T06:59:05;100874.34;;;-1.00;100.00
64835;BME280;51293;59.296;18.006;2022-11-20T07:01:31;100873.50;;;-1.01;100.00
64835;BME280;51293;59.296;18.006;2022-11-20T07:03:56;100890.84;;;-0.97;100.00
64835;BME280;51293;59.296;18.006;2022-11-20T07:06:21;100883.47;;;-1.03;100.00
64835;BME280;51293;59.296;18.006;2022-11-20T07:08:47;100884.47;;;-1.04;100.00
64835;BME280;51293;59.296;18.006;2022-11-20T07:11:12;100887.63;;;-1.00;100.00
64835;BME280;51293;59.296;18.006;2022-11-20T07:13:38;100883.47;;;-1.03;100.00
64835;BME280;51293;59.296;18.006;2022-11-20T07:16:06;100881.19;;;-0.98;100.00
64835;BME280;51293;59.296;18.006;2022-11-20T07:18:32;100879.97;;;-1.03;100.00
64835;BME280;51293;59.296;18.006;2022-11-20T07:21:06;100882.31;;;-1.00;100.00
64835;BME280;51293;59.296;18.006;2022-11-20T07:23:32;100863.94;;;-0.94;100.00
64835;BME280;51293;59.296;18.006;2022-11-20T07:25:57;100863.56;;;-0.99;100.00
64835;BME280;51293;59.296;18.006;2022-11-20T07:28:23;100863.56;;;-0.99;100.00
64835;BME280;51293;59.296;18.006;2022-11-20T07:30:52;100863.09;;;-0.94;100.00
64835;BME280;51293;59.296;18.006;2022-11-20T07:33:17;100858.84;;;-0.87;100.00
64835;BME280;51293;59.296;18.006;2022-11-20T07:35:43;100846.22;;;-0.85;100.00
64835;BME280;51293;59.296;18.006;2022-11-20T07:38:08;100841.06;;;-0.87;100.00
64835;BME280;51293;59.296;18.006;2022-11-20T07:40:33;100844.72;;;-0.88;100.00
64835;BME280;51293;59.296;18.006;2022-11-20T07:42:59;100849.88;;;-0.86;100.00
64835;BME280;51293;59.296;18.006;2022-11-20T07:45:24;100846.06;;;-0.83;100.00
64835;BME280;51293;59.296;18.006;2022-11-20T07:47:50;100842.75;;;-0.86;100.00
64835;BME280;51293;59.296;18.006;2022-11-20T07:50:16;100837.97;;;-0.82;100.00
64835;BME280;51293;59.296;18.006;2022-11-20T07:52:41;100840.47;;;-0.80;100.00
64835;BME280;51293;59.296;18.006;2022-11-20T07:55:08;100841.81;;;-0.76;100.00
64835;BME280;51293;59.296;18.006;2022-11-20T07:57:34;100839.69;;;-0.73;100.00
64835;BME280;51293;59.296;18.006;2022-11-20T07:59:59;100835.03;;;-0.71;100.00
64835;BME280;51293;59.296;18.006;2022-11-20T08:02:25;100839.75;;;-0.65;100.00
64835;BME280;51293;59.296;18.006;2022-11-20T08:04:50;100833.88;;;-0.68;100.00
64835;BME280;51293;59.296;18.006;2022-11-20T08:07:15;100831.94;;;-0.66;100.00
64835;BME280;51293;59.296;18.006;2022-11-20T08:09:41;100823.56;;;-0.71;100.00
64835;BME280;51293;59.296;18.006;2022-11-20T08:12:06;100823.19;;;-0.76;100.00
64835;BME280;51293;59.296;18.006;2022-11-20T08:14:50;100812.78;;;-0.70;100.00
64835;BME280;51293;59.296;18.006;2022-11-20T08:17:15;100809.56;;;-0.55;100.00
64835;BME280;51293;59.296;18.006;2022-11-20T08:19:41;100813.66;;;-0.61;100.00
64835;BME280;51293;59.296;18.006;2022-11-20T08:22:06;100807.00;;;-0.65;100.00
64835;BME280;51293;59.296;18.006;2022-11-20T08:24:32;100804.53;;;-0.59;100.00
64835;BME280;51293;59.296;18.006;2022-11-20T08:26:58;100798.84;;;-0.64;100.00
64835;BME280;51293;59.296;18.006;2022-11-20T08:29:27;100804.38;;;-0.57;100.00
64835;BME280;51293;59.296;18.006;2022-11-20T08:31:52;100805.22;;;-0.57;100.00
64835;BME280;51293;59.296;18.006;2022-11-20T08:34:17;100795.72;;;-0.59;100.00
64835;BME280;51293;59.296;18.006;2022-11-20T08:36:43;100789.25;;;-0.57;100.00
64835;BME280;51293;59.296;18.006;2022-11-20T08:39:11;100788.56;;;-0.59;100.00
64835;BME280;51293;59.296;18.006;2022-11-20T08:41:37;100788.38;;;-0.65;100.00
64835;BME280;51293;59.296;18.006;2022-11-20T08:44:04;100787.38;;;-0.64;100.00
64835;BME280;51293;59.296;18.006;2022-11-20T08:46:40;100782.22;;;-0.66;100.00
64835;BME280;51293;59.296;18.006;2022-11-20T08:49:09;100780.06;;;-0.62;100.00
64835;BME280;51293;59.296;18.006;2022-11-20T08:51:35;100773.97;;;-0.54;100.00
64835;BME280;51293;59.296;18.006;2022-11-20T08:54:00;100769.59;;;-0.64;100.00
64835;BME280;51293;59.296;18.006;2022-11-20T08:56:25;100771.75;;;-0.59;100.00
64835;BME280;51293;59.296;18.006;2022-11-20T08:58:51;100762.94;;;-0.60;100.00
64835;BME280;51293;59.296;18.006;2022-11-20T09:01:20;100767.66;;;-0.53;100.00
64835;BME280;51293;59.296;18.006;2022-11-20T09:03:46;100760.53;;;-0.45;100.00
64835;BME280;51293;59.296;18.006;2022-11-20T09:06:12;100765.38;;;-0.48;100.00
64835;BME280;51293;59.296;18.006;2022-11-20T09:08:38;100763.50;;;-0.56;100.00
64835;BME280;51293;59.296;18.006;2022-11-20T09:11:04;100759.72;;;-0.45;100.00
64835;BME280;51293;59.296;18.006;2022-11-20T09:13:30;100763.22;;;-0.45;100.00
64835;BME280;51293;59.296;18.006;2022-11-20T09:16:01;100755.84;;;-0.51;100.00
64835;BME280;51293;59.296;18.006;2022-11-20T09:18:28;100752.41;;;-0.43;100.00
64835;BME280;51293;59.296;18.006;2022-11-20T09:20:58;100759.50;;;-0.52;100.00
64835;BME280;51293;59.296;18.006;2022-11-20T09:23:24;100756.00;;;-0.52;100.00
64835;BME280;51293;59.296;18.006;2022-11-20T09:25:49;100747.03;;;-0.51;100.00
64835;BME280;51293;59.296;18.006;2022-11-20T09:28:15;100754.50;;;-0.55;100.00
64835;BME280;51293;59.296;18.006;2022-11-20T09:30:41;100756.84;;;-0.52;100.00
64835;BME280;51293;59.296;18.006;2022-11-20T09:33:06;100745.69;;;-0.55;100.00
64835;BME280;51293;59.296;18.006;2022-11-20T09:35:32;100743.88;;;-0.55;100.00
64835;BME280;51293;59.296;18.006;2022-11-20T09:37:58;100743.59;;;-0.44;100.00
64835;BME280;51293;59.296;18.006;2022-11-20T09:40:28;100744.41;;;-0.43;100.00
64835;BME280;51293;59.296;18.006;2022-11-20T09:56:31;100715.63;;;-0.48;100.00
64835;BME280;51293;59.296;18.006;2022-11-20T09:59:03;100707.31;;;-0.45;100.00
64835;BME280;51293;59.296;18.006;2022-11-20T10:01:33;100707.16;;;-0.43;100.00
64835;BME280;51293;59.296;18.006;2022-11-20T10:04:12;100706.13;;;-0.50;100.00
64835;BME280;51293;59.296;18.006;2022-11-20T10:06:53;100704.16;;;-0.48;100.00
64835;BME280;51293;59.296;18.006;2022-11-20T10:09:27;100691.84;;;-0.49;100.00
64835;BME280;51293;59.296;18.006;2022-11-20T10:12:09;100682.06;;;-0.41;100.00
64835;BME280;51293;59.296;18.006;2022-11-20T10:14:59;100683.22;;;-0.43;100.00
64835;BME280;51293;59.296;18.006;2022-11-20T10:21:04;100676.22;;;-0.44;100.00
64835;BME280;51293;59.296;18.006;2022-11-20T10:34:01;100662.25;;;-0.46;100.00
64835;BME280;51293;59.296;18.006;2022-11-20T10:36:45;100660.41;;;-0.46;100.00
64835;BME280;51293;59.296;18.006;2022-11-20T10:41:52;100656.41;;;-0.50;100.00
64835;BME280;51293;59.296;18.006;2022-11-20T10:44:26;100653.25;;;-0.53;100.00
64835;BME280;51293;59.296;18.006;2022-11-20T10:47:16;100644.44;;;-0.54;100.00
64835;BME280;51293;59.296;18.006;2022-11-20T10:49:49;100642.22;;;-0.59;100.00
64835;BME280;51293;59.296;18.006;2022-11-20T10:52:19;100651.41;;;-0.53;100.00
64835;BME280;51293;59.296;18.006;2022-11-20T10:55:06;100647.75;;;-0.52;100.00
64835;BME280;51293;59.296;18.006;2022-11-20T11:00:09;100641.94;;;-0.55;100.00
64835;BME280;51293;59.296;18.006;2022-11-20T11:02:46;100642.56;;;-0.62;100.00
64835;BME280;51293;59.296;18.006;2022-11-20T11:05:31;100633.59;;;-0.61;100.00
64835;BME280;51293;59.296;18.006;2022-11-20T11:08:00;100623.59;;;-0.59;100.00
64835;BME280;51293;59.296;18.006;2022-11-20T11:10:32;100615.63;;;-0.59;100.00
64835;BME280;51293;59.296;18.006;2022-11-20T11:13:00;100620.47;;;-0.54;100.00
64835;BME280;51293;59.296;18.006;2022-11-20T11:15:37;100618.66;;;-0.53;100.00
64835;BME280;51293;59.296;18.006;2022-11-20T11:18:03;100607.50;;;-0.57;100.00
64835;BME280;51293;59.296;18.006;2022-11-20T11:20:29;100605.81;;;-0.58;100.00
64835;BME280;51293;59.296;18.006;2022-11-20T11:22:58;100604.16;;;-0.59;100.00
64835;BME280;51293;59.296;18.006;2022-11-20T11:25:29;100597.38;;;-0.53;100.00
64835;BME280;51293;59.296;18.006;2022-11-20T11:28:21;100593.22;;;-0.56;100.00
64835;BME280;51293;59.296;18.006;2022-11-20T11:30:46;100594.03;;;-0.55;100.00
64835;BME280;51293;59.296;18.006;2022-11-20T11:33:31;100588.06;;;-0.58;100.00
64835;BME280;51293;59.296;18.006;2022-11-20T11:36:03;100575.72;;;-0.59;100.00
64835;BME280;51293;59.296;18.006;2022-11-20T11:38:40;100567.44;;;-0.55;100.00
64835;BME280;51293;59.296;18.006;2022-11-20T11:41:23;100561.13;;;-0.54;100.00
64835;BME280;51293;59.296;18.006;2022-11-20T11:43:59;100553.78;;;-0.52;100.00
64835;BME280;51293;59.296;18.006;2022-11-20T11:46:49;100552.66;;;-0.42;100.00
64835;BME280;51293;59.296;18.006;2022-11-20T11:49:19;100555.16;;;-0.48;100.00
64835;BME280;51293;59.296;18.006;2022-11-20T11:57:26;100536.84;;;-0.51;100.00
64835;BME280;51293;59.296;18.006;2022-11-20T12:00:12;100546.34;;;-0.49;100.00
64835;BME280;51293;59.296;18.006;2022-11-20T12:07:54;100533.19;;;-0.50;100.00
64835;BME280;51293;59.296;18.006;2022-11-20T12:10:22;100530.19;;;-0.55;100.00
64835;BME280;51293;59.296;18.006;2022-11-20T12:13:02;100528.03;;;-0.44;100.00
64835;BME280;51293;59.296;18.006;2022-11-20T12:15:32;100522.41;;;-0.49;100.00
64835;BME280;51293;59.296;18.006;2022-11-20T12:17:58;100514.22;;;-0.55;100.00
64835;BME280;51293;59.296;18.006;2022-11-20T12:20:31;100521.69;;;-0.51;100.00
64835;BME280;51293;59.296;18.006;2022-11-20T12:23:27;100520.38;;;-0.55;100.00
64835;BME280;51293;59.296;18.006;2022-11-20T12:25:56;100516.69;;;-0.62;100.00
64835;BME280;51293;59.296;18.006;2022-11-20T12:31:31;100506.22;;;-0.64;100.00
64835;BME280;51293;59.296;18.006;2022-11-20T12:39:43;100511.56;;;-0.64;100.00
64835;BME280;51293;59.296;18.006;2022-11-20T12:42:42;100508.53;;;-0.69;100.00
64835;BME280;51293;59.296;18.006;2022-11-20T12:48:12;100504.88;;;-0.68;100.00
64835;BME280;51293;59.296;18.006;2022-11-20T12:51:21;100493.09;;;-0.65;100.00
64835;BME280;51293;59.296;18.006;2022-11-20T13:01:30;100490.09;;;-0.62;100.00
64835;BME280;51293;59.296;18.006;2022-11-20T13:07:07;100472.47;;;-0.63;100.00
64835;BME280;51293;59.296;18.006;2022-11-20T13:09:35;100474.31;;;-0.64;100.00
64835;BME280;51293;59.296;18.006;2022-11-20T13:12:24;100467.63;;;-0.68;100.00
64835;BME280;51293;59.296;18.006;2022-11-20T13:15:02;100464.16;;;-0.60;100.00
64835;BME280;51293;59.296;18.006;2022-11-20T13:20:15;100457.69;;;-0.66;100.00
64835;BME280;51293;59.296;18.006;2022-11-20T13:22:44;100460.34;;;-0.74;100.00
64835;BME280;51293;59.296;18.006;2022-11-20T13:25:25;100448.34;;;-0.70;100.00
64835;BME280;51293;59.296;18.006;2022-11-20T13:27:51;100451.38;;;-0.65;100.00
64835;BME280;51293;59.296;18.006;2022-11-20T13:30:20;100447.34;;;-0.69;100.00
64835;BME280;51293;59.296;18.006;2022-11-20T13:32:57;100443.38;;;-0.73;100.00
64835;BME280;51293;59.296;18.006;2022-11-20T13:38:01;100450.34;;;-0.72;100.00
64835;BME280;51293;59.296;18.006;2022-11-20T13:40:27;100430.06;;;-0.81;100.00
64835;BME280;51293;59.296;18.006;2022-11-20T13:45:41;100420.09;;;-0.79;100.00
64835;BME280;51293;59.296;18.006;2022-11-20T13:48:24;100413.13;;;-0.80;100.00
64835;BME280;51293;59.296;18.006;2022-11-20T13:51:07;100420.09;;;-0.79;100.00
64835;BME280;51293;59.296;18.006;2022-11-20T13:56:59;100416.44;;;-0.86;100.00
64835;BME280;51293;59.296;18.006;2022-11-20T13:59:37;100398.97;;;-0.89;100.00